sensor_id;sensor_type;location;lat;lon;timestamp;P1;durP1;ratioP1;P2;durP2;ratioP2
76693;SDS011;69667;52.136;5.424;2024-02-16T00:01:54;4.32;;;2.03;;
76693;SDS011;69667;52.136;5.424;2024-02-16T00:04:22;2.97;;;1.33;;
76693;SDS011;69667;52.136;5.424;2024-02-16T00:06:50;2.55;;;1.08;;
76693;SDS011;69667;52.136;5.424;2024-02-16T00:09:19;2.42;;;1.50;;
76693;SDS011;69667;52.136;5.424;2024-02-16T00:11:47;4.53;;;1.60;;
76693;SDS011;69667;52.136;5.424;2024-02-16T00:14:17;3.72;;;1.40;;
76693;SDS011;69667;52.136;5.424;2024-02-16T00:16:46;5.00;;;1.45;;
76693;SDS011;69667;52.136;5.424;2024-02-16T00:19:15;4.32;;;1.23;;
76693;SDS011;69667;52.136;5.424;2024-02-16T00:21:44;4.05;;;1.55;;
76693;SDS011;69667;52.136;5.424;2024-02-16T00:24:12;3.40;;;1.20;;
76693;SDS011;69667;52.136;5.424;2024-02-16T00:26:40;5.05;;;1.75;;
76693;SDS011;69667;52.136;5.424;2024-02-16T00:29:10;3.80;;;1.58;;
76693;SDS011;69667;52.136;5.424;2024-02-16T00:31:39;4.47;;;1.98;;
76693;SDS011;69667;52.136;5.424;2024-02-16T00:34:07;3.67;;;1.33;;
76693;SDS011;69667;52.136;5.424;2024-02-16T00:36:36;2.85;;;1.30;;
76693;SDS011;69667;52.136;5.424;2024-02-16T00:39:04;1.98;;;1.10;;
76693;SDS011;69667;52.136;5.424;2024-02-16T00:41:32;4.15;;;1.60;;
76693;SDS011;69667;52.136;5.424;2024-02-16T00:44:00;2.70;;;1.30;;
76693;SDS011;69667;52.136;5.424;2024-02-16T00:46:29;3.80;;;1.90;;
76693;SDS011;69667;52.136;5.424;2024-02-16T00:48:58;4.80;;;1.50;;
76693;SDS011;69667;52.136;5.424;2024-02-16T00:51:27;3.33;;;1.38;;
76693;SDS011;69667;52.136;5.424;2024-02-16T00:53:56;3.90;;;1.55;;
76693;SDS011;69667;52.136;5.424;2024-02-16T00:56:24;6.13;;;1.80;;
76693;SDS011;69667;52.136;5.424;2024-02-16T00:58:53;4.38;;;1.40;;
76693;SDS011;69667;52.136;5.424;2024-02-16T01:01:21;2.72;;;1.30;;
76693;SDS011;69667;52.136;5.424;2024-02-16T01:03:49;3.42;;;1.30;;
76693;SDS011;69667;52.136;5.424;2024-02-16T01:06:19;3.58;;;1.48;;
76693;SDS011;69667;52.136;5.424;2024-02-16T01:08:47;4.28;;;1.58;;
76693;SDS011;69667;52.136;5.424;2024-02-16T01:11:16;3.45;;;1.67;;
76693;SDS011;69667;52.136;5.424;2024-02-16T01:13:44;3.78;;;1.58;;
76693;SDS011;69667;52.136;5.424;2024-02-16T01:16:13;4.47;;;1.40;;
76693;SDS011;69667;52.136;5.424;2024-02-16T01:18:41;2.60;;;1.45;;
76693;SDS011;69667;52.136;5.424;2024-02-16T01:21:10;5.40;;;2.08;;
76693;SDS011;69667;52.136;5.424;2024-02-16T01:23:39;2.53;;;1.35;;
76693;SDS011;69667;52.136;5.424;2024-02-16T01:26:07;4.90;;;1.73;;
76693;SDS011;69667;52.136;5.424;2024-02-16T01:28:35;4.25;;;1.80;;
76693;SDS011;69667;52.136;5.424;2024-02-16T01:31:04;2.40;;;1.23;;
76693;SDS011;69667;52.136;5.424;2024-02-16T01:33:32;3.28;;;1.38;;
76693;SDS011;69667;52.136;5.424;2024-02-16T01:36:02;4.15;;;1.73;;
76693;SDS011;69667;52.136;5.424;2024-02-16T01:38:31;4.65;;;1.50;;
76693;SDS011;69667;52.136;5.424;2024-02-16T01:40:59;6.80;;;1.40;;
76693;SDS011;69667;52.136;5.424;2024-02-16T01:43:28;4.28;;;1.50;;
76693;SDS011;69667;52.136;5.424;2024-02-16T01:45:57;3.53;;;1.70;;
76693;SDS011;69667;52.136;5.424;2024-02-16T01:48:27;3.17;;;1.42;;
76693;SDS011;69667;52.136;5.424;2024-02-16T01:50:56;4.15;;;1.83;;
76693;SDS011;69667;52.136;5.424;2024-02-16T01:53:28;3.50;;;1.50;;
76693;SDS011;69667;52.136;5.424;2024-02-16T01:55:56;3.97;;;1.40;;
76693;SDS011;69667;52.136;5.424;2024-02-16T01:58:25;3.63;;;1.40;;
76693;SDS011;69667;52.136;5.424;2024-02-16T02:00:54;3.80;;;1.92;;
76693;SDS011;69667;52.136;5.424;2024-02-16T02:03:22;3.60;;;1.60;;
76693;SDS011;69667;52.136;5.424;2024-02-16T02:05:50;5.72;;;1.88;;
76693;SDS011;69667;52.136;5.424;2024-02-16T02:08:22;2.92;;;1.42;;
76693;SDS011;69667;52.136;5.424;2024-02-16T02:10:50;4.45;;;1.63;;
76693;SDS011;69667;52.136;5.424;2024-02-16T02:13:18;4.03;;;1.50;;
76693;SDS011;69667;52.136;5.424;2024-02-16T02:15:49;4.32;;;1.95;;
76693;SDS011;69667;52.136;5.424;2024-02-16T02:18:17;2.83;;;1.73;;
76693;SDS011;69667;52.136;5.424;2024-02-16T02:20:46;3.80;;;1.30;;
76693;SDS011;69667;52.136;5.424;2024-02-16T02:23:14;4.55;;;1.80;;
76693;SDS011;69667;52.136;5.424;2024-02-16T02:25:42;2.45;;;1.30;;
76693;SDS011;69667;52.136;5.424;2024-02-16T02:28:11;4.90;;;1.70;;
76693;SDS011;69667;52.136;5.424;2024-02-16T02:30:39;6.00;;;1.65;;
76693;SDS011;69667;52.136;5.424;2024-02-16T02:33:07;3.08;;;1.48;;
76693;SDS011;69667;52.136;5.424;2024-02-16T02:35:38;4.18;;;1.63;;
76693;SDS011;69667;52.136;5.424;2024-02-16T02:38:07;2.80;;;1.60;;
76693;SDS011;69667;52.136;5.424;2024-02-16T02:40:36;4.00;;;1.40;;
76693;SDS011;69667;52.136;5.424;2024-02-16T02:43:04;5.25;;;1.75;;
76693;SDS011;69667;52.136;5.424;2024-02-16T02:45:33;2.08;;;1.33;;
76693;SDS011;69667;52.136;5.424;2024-02-16T02:48:01;4.18;;;1.42;;
76693;SDS011;69667;52.136;5.424;2024-02-16T02:50:29;3.08;;;1.80;;
76693;SDS011;69667;52.136;5.424;2024-02-16T02:52:58;5.13;;;1.52;;
76693;SDS011;69667;52.136;5.424;2024-02-16T02:55:27;3.78;;;1.55;;
76693;SDS011;69667;52.136;5.424;2024-02-16T02:57:55;2.35;;;1.20;;
76693;SDS011;69667;52.136;5.424;2024-02-16T03:00:24;2.65;;;1.50;;
76693;SDS011;69667;52.136;5.424;2024-02-16T03:02:53;2.47;;;1.55;;
76693;SDS011;69667;52.136;5.424;2024-02-16T03:05:21;2.60;;;1.13;;
76693;SDS011;69667;52.136;5.424;2024-02-16T03:07:49;5.55;;;1.88;;
76693;SDS011;69667;52.136;5.424;2024-02-16T03:10:18;3.25;;;1.45;;
76693;SDS011;69667;52.136;5.424;2024-02-16T03:12:49;4.45;;;2.08;;
76693;SDS011;69667;52.136;5.424;2024-02-16T03:15:17;4.15;;;1.60;;
76693;SDS011;69667;52.136;5.424;2024-02-16T03:17:46;3.30;;;1.83;;
76693;SDS011;69667;52.136;5.424;2024-02-16T03:20:14;2.88;;;1.52;;
76693;SDS011;69667;52.136;5.424;2024-02-16T03:22:43;5.57;;;1.77;;
76693;SDS011;69667;52.136;5.424;2024-02-16T03:25:12;2.80;;;1.27;;
76693;SDS011;69667;52.136;5.424;2024-02-16T03:27:40;3.63;;;1.30;;
76693;SDS011;69667;52.136;5.424;2024-02-16T03:30:09;3.30;;;1.85;;
76693;SDS011;69667;52.136;5.424;2024-02-16T03:32:38;2.88;;;1.67;;
76693;SDS011;69667;52.136;5.424;2024-02-16T03:35:06;5.20;;;1.73;;
76693;SDS011;69667;52.136;5.424;2024-02-16T03:40:05;8.35;;;1.88;;
76693;SDS011;69667;52.136;5.424;2024-02-16T03:42:35;3.20;;;1.75;;
76693;SDS011;69667;52.136;5.424;2024-02-16T03:45:03;2.45;;;1.25;;
76693;SDS011;69667;52.136;5.424;2024-02-16T03:47:32;2.47;;;1.35;;
76693;SDS011;69667;52.136;5.424;2024-02-16T03:50:01;3.80;;;1.60;;
76693;SDS011;69667;52.136;5.424;2024-02-16T03:52:30;3.42;;;1.63;;
76693;SDS011;69667;52.136;5.424;2024-02-16T03:54:58;4.68;;;1.90;;
76693;SDS011;69667;52.136;5.424;2024-02-16T03:57:26;2.70;;;1.50;;
76693;SDS011;69667;52.136;5.424;2024-02-16T03:59:55;4.28;;;1.60;;
76693;SDS011;69667;52.136;5.424;2024-02-16T04:02:23;3.13;;;1.60;;
76693;SDS011;69667;52.136;5.424;2024-02-16T04:04:52;3.25;;;1.58;;
76693;SDS011;69667;52.136;5.424;2024-02-16T04:07:21;3.28;;;1.67;;
76693;SDS011;69667;52.136;5.424;2024-02-16T04:09:49;4.68;;;1.67;;
76693;SDS011;69667;52.136;5.424;2024-02-16T04:12:17;4.10;;;2.13;;
76693;SDS011;69667;52.136;5.424;2024-02-16T04:14:46;3.25;;;1.13;;
76693;SDS011;69667;52.136;5.424;2024-02-16T04:17:14;2.22;;;1.30;;
76693;SDS011;69667;52.136;5.424;2024-02-16T04:19:42;6.53;;;1.40;;
76693;SDS011;69667;52.136;5.424;2024-02-16T04:22:11;3.92;;;1.75;;
76693;SDS011;69667;52.136;5.424;2024-02-16T04:24:39;3.40;;;1.52;;
76693;SDS011;69667;52.136;5.424;2024-02-16T04:27:07;3.13;;;1.45;;
76693;SDS011;69667;52.136;5.424;2024-02-16T04:29:35;3.65;;;1.67;;
76693;SDS011;69667;52.136;5.424;2024-02-16T04:32:04;3.50;;;1.50;;
76693;SDS011;69667;52.136;5.424;2024-02-16T04:34:32;3.20;;;1.52;;
76693;SDS011;69667;52.136;5.424;2024-02-16T04:37:01;4.47;;;1.65;;
76693;SDS011;69667;52.136;5.424;2024-02-16T04:39:29;4.97;;;1.98;;
76693;SDS011;69667;52.136;5.424;2024-02-16T04:41:57;3.22;;;1.90;;
76693;SDS011;69667;52.136;5.424;2024-02-16T04:44:26;2.95;;;1.27;;
76693;SDS011;69667;52.136;5.424;2024-02-16T04:46:54;5.53;;;1.95;;
76693;SDS011;69667;52.136;5.424;2024-02-16T04:49:22;7.40;;;1.90;;
76693;SDS011;69667;52.136;5.424;2024-02-16T04:51:51;5.93;;;1.48;;
76693;SDS011;69667;52.136;5.424;2024-02-16T04:54:19;2.47;;;1.50;;
76693;SDS011;69667;52.136;5.424;2024-02-16T04:56:48;3.13;;;1.67;;
76693;SDS011;69667;52.136;5.424;2024-02-16T05:01:45;4.05;;;1.35;;
76693;SDS011;69667;52.136;5.424;2024-02-16T05:04:13;3.13;;;1.30;;
76693;SDS011;69667;52.136;5.424;2024-02-16T05:06:44;3.25;;;1.50;;
76693;SDS011;69667;52.136;5.424;2024-02-16T05:11:44;4.30;;;1.80;;
76693;SDS011;69667;52.136;5.424;2024-02-16T05:14:12;3.35;;;1.48;;
76693;SDS011;69667;52.136;5.424;2024-02-16T05:16:44;3.83;;;1.60;;
76693;SDS011;69667;52.136;5.424;2024-02-16T05:19:13;2.92;;;1.50;;
76693;SDS011;69667;52.136;5.424;2024-02-16T05:21:41;4.28;;;1.48;;
76693;SDS011;69667;52.136;5.424;2024-02-16T05:24:09;6.40;;;1.80;;
76693;SDS011;69667;52.136;5.424;2024-02-16T05:26:38;3.80;;;1.60;;
76693;SDS011;69667;52.136;5.424;2024-02-16T05:29:06;4.10;;;1.48;;
76693;SDS011;69667;52.136;5.424;2024-02-16T05:31:34;3.30;;;1.33;;
76693;SDS011;69667;52.136;5.424;2024-02-16T05:34:02;5.20;;;2.13;;
76693;SDS011;69667;52.136;5.424;2024-02-16T05:36:31;5.70;;;2.00;;
76693;SDS011;69667;52.136;5.424;2024-02-16T05:39:03;4.03;;;1.63;;
76693;SDS011;69667;52.136;5.424;2024-02-16T05:41:54;4.03;;;1.70;;
76693;SDS011;69667;52.136;5.424;2024-02-16T05:44:23;3.22;;;1.30;;
76693;SDS011;69667;52.136;5.424;2024-02-16T05:46:51;3.03;;;1.90;;
76693;SDS011;69667;52.136;5.424;2024-02-16T05:49:19;5.15;;;1.83;;
76693;SDS011;69667;52.136;5.424;2024-02-16T05:51:48;3.63;;;1.55;;
76693;SDS011;69667;52.136;5.424;2024-02-16T05:54:46;7.57;;;2.00;;
76693;SDS011;69667;52.136;5.424;2024-02-16T05:57:15;4.22;;;1.52;;
76693;SDS011;69667;52.136;5.424;2024-02-16T05:59:45;5.30;;;1.73;;
76693;SDS011;69667;52.136;5.424;2024-02-16T06:02:15;3.83;;;1.55;;
76693;SDS011;69667;52.136;5.424;2024-02-16T06:04:43;3.92;;;1.83;;
76693;SDS011;69667;52.136;5.424;2024-02-16T06:07:12;3.80;;;1.98;;
76693;SDS011;69667;52.136;5.424;2024-02-16T06:09:40;6.55;;;1.50;;
76693;SDS011;69667;52.136;5.424;2024-02-16T06:12:09;4.28;;;1.88;;
76693;SDS011;69667;52.136;5.424;2024-02-16T06:14:40;3.30;;;1.63;;
76693;SDS011;69667;52.136;5.424;2024-02-16T06:17:08;2.95;;;1.40;;
76693;SDS011;69667;52.136;5.424;2024-02-16T06:19:36;4.28;;;1.60;;
76693;SDS011;69667;52.136;5.424;2024-02-16T06:22:05;4.15;;;1.85;;
76693;SDS011;69667;52.136;5.424;2024-02-16T06:24:35;3.78;;;2.10;;
76693;SDS011;69667;52.136;5.424;2024-02-16T06:27:04;3.85;;;1.90;;
76693;SDS011;69667;52.136;5.424;2024-02-16T06:29:32;3.50;;;1.63;;
76693;SDS011;69667;52.136;5.424;2024-02-16T06:32:00;3.72;;;1.60;;
76693;SDS011;69667;52.136;5.424;2024-02-16T06:34:29;3.60;;;1.73;;
76693;SDS011;69667;52.136;5.424;2024-02-16T06:36:58;2.85;;;1.40;;
76693;SDS011;69667;52.136;5.424;2024-02-16T06:39:26;2.45;;;1.35;;
76693;SDS011;69667;52.136;5.424;2024-02-16T06:41:57;5.93;;;1.90;;
76693;SDS011;69667;52.136;5.424;2024-02-16T06:44:25;4.05;;;1.88;;
76693;SDS011;69667;52.136;5.424;2024-02-16T06:46:53;4.70;;;1.50;;
76693;SDS011;69667;52.136;5.424;2024-02-16T06:49:21;4.15;;;1.70;;
76693;SDS011;69667;52.136;5.424;2024-02-16T06:51:50;6.13;;;1.70;;
76693;SDS011;69667;52.136;5.424;2024-02-16T06:54:18;2.38;;;1.40;;
76693;SDS011;69667;52.136;5.424;2024-02-16T06:56:46;6.30;;;1.70;;
76693;SDS011;69667;52.136;5.424;2024-02-16T06:59:15;4.13;;;1.75;;
76693;SDS011;69667;52.136;5.424;2024-02-16T07:01:43;3.17;;;1.60;;
76693;SDS011;69667;52.136;5.424;2024-02-16T07:04:11;3.40;;;1.30;;
76693;SDS011;69667;52.136;5.424;2024-02-16T07:06:40;3.20;;;1.52;;
76693;SDS011;69667;52.136;5.424;2024-02-16T07:09:08;3.45;;;1.27;;
76693;SDS011;69667;52.136;5.424;2024-02-16T07:11:37;3.45;;;1.58;;
76693;SDS011;69667;52.136;5.424;2024-02-16T07:14:05;3.50;;;1.90;;
76693;SDS011;69667;52.136;5.424;2024-02-16T07:16:35;3.83;;;1.65;;
76693;SDS011;69667;52.136;5.424;2024-02-16T07:19:04;4.18;;;1.80;;
76693;SDS011;69667;52.136;5.424;2024-02-16T07:24:00;3.67;;;1.48;;
76693;SDS011;69667;52.136;5.424;2024-02-16T07:26:29;4.13;;;1.65;;
76693;SDS011;69667;52.136;5.424;2024-02-16T07:29:00;5.43;;;1.65;;
76693;SDS011;69667;52.136;5.424;2024-02-16T07:31:32;4.57;;;1.65;;
76693;SDS011;69667;52.136;5.424;2024-02-16T07:34:01;4.53;;;2.10;;
76693;SDS011;69667;52.136;5.424;2024-02-16T07:38:59;3.67;;;1.58;;
76693;SDS011;69667;52.136;5.424;2024-02-16T07:41:27;2.03;;;1.33;;
76693;SDS011;69667;52.136;5.424;2024-02-16T07:43:55;3.38;;;1.70;;
76693;SDS011;69667;52.136;5.424;2024-02-16T07:46:24;3.65;;;1.58;;
76693;SDS011;69667;52.136;5.424;2024-02-16T07:48:52;5.03;;;1.70;;
76693;SDS011;69667;52.136;5.424;2024-02-16T07:51:20;4.63;;;1.63;;
76693;SDS011;69667;52.136;5.424;2024-02-16T07:53:48;3.92;;;1.98;;
76693;SDS011;69667;52.136;5.424;2024-02-16T07:56:17;3.70;;;1.90;;
76693;SDS011;69667;52.136;5.424;2024-02-16T07:58:45;4.68;;;1.90;;
76693;SDS011;69667;52.136;5.424;2024-02-16T08:01:14;3.88;;;1.80;;
76693;SDS011;69667;52.136;5.424;2024-02-16T08:03:42;4.75;;;2.10;;
76693;SDS011;69667;52.136;5.424;2024-02-16T08:06:11;3.72;;;1.45;;
76693;SDS011;69667;52.136;5.424;2024-02-16T08:08:40;4.53;;;1.88;;
76693;SDS011;69667;52.136;5.424;2024-02-16T08:11:10;2.80;;;1.63;;
76693;SDS011;69667;52.136;5.424;2024-02-16T08:13:38;5.53;;;1.85;;
76693;SDS011;69667;52.136;5.424;2024-02-16T08:16:06;3.85;;;1.65;;
76693;SDS011;69667;52.136;5.424;2024-02-16T08:18:34;3.92;;;1.90;;
76693;SDS011;69667;52.136;5.424;2024-02-16T08:21:03;2.95;;;1.52;;
76693;SDS011;69667;52.136;5.424;2024-02-16T08:23:31;3.53;;;1.73;;
76693;SDS011;69667;52.136;5.424;2024-02-16T08:26:00;5.32;;;1.92;;
76693;SDS011;69667;52.136;5.424;2024-02-16T08:28:29;2.83;;;1.42;;
76693;SDS011;69667;52.136;5.424;2024-02-16T08:30:57;3.60;;;2.08;;
76693;SDS011;69667;52.136;5.424;2024-02-16T08:33:25;5.03;;;1.88;;
76693;SDS011;69667;52.136;5.424;2024-02-16T08:35:54;3.80;;;1.80;;
76693;SDS011;69667;52.136;5.424;2024-02-16T08:38:22;5.57;;;2.30;;
76693;SDS011;69667;52.136;5.424;2024-02-16T08:40:50;8.65;;;1.92;;
76693;SDS011;69667;52.136;5.424;2024-02-16T08:43:19;4.28;;;2.53;;
76693;SDS011;69667;52.136;5.424;2024-02-16T08:45:47;5.25;;;2.15;;
76693;SDS011;69667;52.136;5.424;2024-02-16T08:48:16;3.10;;;1.67;;
76693;SDS011;69667;52.136;5.424;2024-02-16T08:50:44;4.82;;;2.03;;
76693;SDS011;69667;52.136;5.424;2024-02-16T08:53:12;5.28;;;1.90;;
76693;SDS011;69667;52.136;5.424;2024-02-16T08:55:41;5.45;;;2.20;;
76693;SDS011;69667;52.136;5.424;2024-02-16T08:58:09;4.85;;;1.98;;
76693;SDS011;69667;52.136;5.424;2024-02-16T09:00:38;4.40;;;2.03;;
76693;SDS011;69667;52.136;5.424;2024-02-16T09:03:06;4.50;;;2.03;;
76693;SDS011;69667;52.136;5.424;2024-02-16T09:05:35;4.57;;;2.10;;
76693;SDS011;69667;52.136;5.424;2024-02-16T09:08:04;3.08;;;1.63;;
76693;SDS011;69667;52.136;5.424;2024-02-16T09:10:33;5.40;;;1.88;;
76693;SDS011;69667;52.136;5.424;2024-02-16T09:13:04;4.97;;;1.90;;
76693;SDS011;69667;52.136;5.424;2024-02-16T09:15:32;4.47;;;1.92;;
76693;SDS011;69667;52.136;5.424;2024-02-16T09:18:01;4.45;;;1.77;;
76693;SDS011;69667;52.136;5.424;2024-02-16T09:20:30;5.15;;;2.30;;
76693;SDS011;69667;52.136;5.424;2024-02-16T09:22:59;5.32;;;1.73;;
76693;SDS011;69667;52.136;5.424;2024-02-16T09:25:27;5.38;;;2.53;;
76693;SDS011;69667;52.136;5.424;2024-02-16T09:27:55;6.22;;;2.35;;
76693;SDS011;69667;52.136;5.424;2024-02-16T09:30:23;6.18;;;2.60;;
76693;SDS011;69667;52.136;5.424;2024-02-16T09:32:53;6.53;;;2.70;;
76693;SDS011;69667;52.136;5.424;2024-02-16T09:35:21;5.18;;;2.20;;
76693;SDS011;69667;52.136;5.424;2024-02-16T09:37:49;6.10;;;2.10;;
76693;SDS011;69667;52.136;5.424;2024-02-16T09:40:18;4.97;;;2.45;;
76693;SDS011;69667;52.136;5.424;2024-02-16T09:42:49;5.10;;;2.05;;
76693;SDS011;69667;52.136;5.424;2024-02-16T09:45:18;4.75;;;2.60;;
76693;SDS011;69667;52.136;5.424;2024-02-16T09:47:46;5.28;;;2.47;;
76693;SDS011;69667;52.136;5.424;2024-02-16T09:50:26;4.43;;;2.20;;
76693;SDS011;69667;52.136;5.424;2024-02-16T09:52:56;7.40;;;2.45;;
76693;SDS011;69667;52.136;5.424;2024-02-16T09:55:24;6.28;;;2.47;;
76693;SDS011;69667;52.136;5.424;2024-02-16T09:57:59;6.18;;;2.80;;
76693;SDS011;69667;52.136;5.424;2024-02-16T10:00:27;3.85;;;2.10;;
76693;SDS011;69667;52.136;5.424;2024-02-16T10:02:56;4.43;;;2.10;;
76693;SDS011;69667;52.136;5.424;2024-02-16T10:05:24;4.88;;;1.92;;
76693;SDS011;69667;52.136;5.424;2024-02-16T10:07:52;4.20;;;2.28;;
76693;SDS011;69667;52.136;5.424;2024-02-16T10:10:28;4.68;;;2.70;;
76693;SDS011;69667;52.136;5.424;2024-02-16T10:13:04;8.82;;;2.10;;
76693;SDS011;69667;52.136;5.424;2024-02-16T10:15:33;4.85;;;1.90;;
76693;SDS011;69667;52.136;5.424;2024-02-16T10:18:05;4.38;;;2.25;;
76693;SDS011;69667;52.136;5.424;2024-02-16T10:20:35;6.10;;;2.55;;
76693;SDS011;69667;52.136;5.424;2024-02-16T10:23:10;9.02;;;2.72;;
76693;SDS011;69667;52.136;5.424;2024-02-16T10:25:39;6.68;;;2.58;;
76693;SDS011;69667;52.136;5.424;2024-02-16T10:28:08;4.40;;;2.65;;
76693;SDS011;69667;52.136;5.424;2024-02-16T10:30:41;6.00;;;2.53;;
76693;SDS011;69667;52.136;5.424;2024-02-16T10:33:11;5.97;;;2.90;;
76693;SDS011;69667;52.136;5.424;2024-02-16T10:35:40;7.38;;;3.13;;
76693;SDS011;69667;52.136;5.424;2024-02-16T10:38:09;6.18;;;3.05;;
76693;SDS011;69667;52.136;5.424;2024-02-16T10:40:39;7.72;;;3.08;;
76693;SDS011;69667;52.136;5.424;2024-02-16T10:43:09;5.63;;;2.30;;
76693;SDS011;69667;52.136;5.424;2024-02-16T10:48:07;4.30;;;2.15;;
76693;SDS011;69667;52.136;5.424;2024-02-16T10:50:36;6.90;;;2.70;;
76693;SDS011;69667;52.136;5.424;2024-02-16T10:53:15;6.43;;;3.17;;
76693;SDS011;69667;52.136;5.424;2024-02-16T10:55:50;6.55;;;3.58;;
76693;SDS011;69667;52.136;5.424;2024-02-16T10:58:18;5.95;;;2.80;;
76693;SDS011;69667;52.136;5.424;2024-02-16T11:00:50;5.20;;;2.35;;
76693;SDS011;69667;52.136;5.424;2024-02-16T11:03:23;5.50;;;3.42;;
76693;SDS011;69667;52.136;5.424;2024-02-16T11:05:53;5.72;;;3.17;;
76693;SDS011;69667;52.136;5.424;2024-02-16T11:08:25;6.30;;;3.22;;
76693;SDS011;69667;52.136;5.424;2024-02-16T11:13:24;6.20;;;2.95;;
76693;SDS011;69667;52.136;5.424;2024-02-16T11:15:56;8.10;;;4.15;;
76693;SDS011;69667;52.136;5.424;2024-02-16T11:18:27;9.95;;;3.17;;
76693;SDS011;69667;52.136;5.424;2024-02-16T11:21:02;8.55;;;3.05;;
76693;SDS011;69667;52.136;5.424;2024-02-16T11:23:31;7.30;;;3.83;;
76693;SDS011;69667;52.136;5.424;2024-02-16T11:26:03;5.97;;;3.42;;
76693;SDS011;69667;52.136;5.424;2024-02-16T11:28:36;6.32;;;2.85;;
76693;SDS011;69667;52.136;5.424;2024-02-16T11:31:04;8.00;;;3.80;;
76693;SDS011;69667;52.136;5.424;2024-02-16T11:33:34;7.60;;;3.25;;
76693;SDS011;69667;52.136;5.424;2024-02-16T11:36:03;5.97;;;3.72;;
76693;SDS011;69667;52.136;5.424;2024-02-16T11:38:32;5.57;;;3.13;;
76693;SDS011;69667;52.136;5.424;2024-02-16T11:41:02;6.13;;;3.53;;
76693;SDS011;69667;52.136;5.424;2024-02-16T11:43:32;5.57;;;3.28;;
76693;SDS011;69667;52.136;5.424;2024-02-16T11:46:13;7.20;;;3.72;;
76693;SDS011;69667;52.136;5.424;2024-02-16T11:48:41;5.82;;;3.42;;
76693;SDS011;69667;52.136;5.424;2024-02-16T11:51:10;7.85;;;3.45;;
76693;SDS011;69667;52.136;5.424;2024-02-16T11:53:38;6.28;;;3.90;;
76693;SDS011;69667;52.136;5.424;2024-02-16T11:56:07;7.63;;;3.97;;
76693;SDS011;69667;52.136;5.424;2024-02-16T11:58:35;5.88;;;3.67;;
76693;SDS011;69667;52.136;5.424;2024-02-16T12:01:03;8.65;;;3.67;;
76693;SDS011;69667;52.136;5.424;2024-02-16T12:03:40;8.45;;;3.67;;
76693;SDS011;69667;52.136;5.424;2024-02-16T12:06:19;4.65;;;3.47;;
76693;SDS011;69667;52.136;5.424;2024-02-16T12:08:49;6.25;;;3.75;;
76693;SDS011;69667;52.136;5.424;2024-02-16T12:11:20;6.05;;;3.65;;
76693;SDS011;69667;52.136;5.424;2024-02-16T12:13:48;5.80;;;3.33;;
76693;SDS011;69667;52.136;5.424;2024-02-16T12:16:18;5.18;;;2.97;;
76693;SDS011;69667;52.136;5.424;2024-02-16T12:18:47;5.70;;;2.85;;
76693;SDS011;69667;52.136;5.424;2024-02-16T12:21:17;5.68;;;4.00;;
76693;SDS011;69667;52.136;5.424;2024-02-16T12:23:47;6.22;;;3.22;;
76693;SDS011;69667;52.136;5.424;2024-02-16T12:26:15;7.07;;;3.42;;
76693;SDS011;69667;52.136;5.424;2024-02-16T12:28:44;6.53;;;3.22;;
76693;SDS011;69667;52.136;5.424;2024-02-16T12:31:17;5.53;;;3.60;;
76693;SDS011;69667;52.136;5.424;2024-02-16T12:33:48;7.32;;;4.00;;
76693;SDS011;69667;52.136;5.424;2024-02-16T12:36:16;6.30;;;2.92;;
76693;SDS011;69667;52.136;5.424;2024-02-16T12:38:45;5.00;;;2.90;;
76693;SDS011;69667;52.136;5.424;2024-02-16T12:41:13;5.05;;;2.33;;
76693;SDS011;69667;52.136;5.424;2024-02-16T12:43:41;3.42;;;1.90;;
76693;SDS011;69667;52.136;5.424;2024-02-16T12:46:10;3.88;;;1.80;;
76693;SDS011;69667;52.136;5.424;2024-02-16T12:48:38;4.95;;;1.23;;
76693;SDS011;69667;52.136;5.424;2024-02-16T12:51:06;6.75;;;2.50;;
76693;SDS011;69667;52.136;5.424;2024-02-16T12:53:35;3.35;;;1.67;;
76693;SDS011;69667;52.136;5.424;2024-02-16T12:56:07;3.38;;;1.50;;
76693;SDS011;69667;52.136;5.424;2024-02-16T13:01:04;2.35;;;1.10;;
76693;SDS011;69667;52.136;5.424;2024-02-16T13:03:45;2.20;;;1.15;;
76693;SDS011;69667;52.136;5.424;2024-02-16T13:06:14;2.73;;;1.13;;
76693;SDS011;69667;52.136;5.424;2024-02-16T13:08:43;3.28;;;1.38;;
76693;SDS011;69667;52.136;5.424;2024-02-16T13:11:11;2.10;;;1.10;;
76693;SDS011;69667;52.136;5.424;2024-02-16T13:13:39;3.28;;;1.50;;
76693;SDS011;69667;52.136;5.424;2024-02-16T13:16:08;2.65;;;1.20;;
76693;SDS011;69667;52.136;5.424;2024-02-16T13:18:36;3.28;;;1.17;;
76693;SDS011;69667;52.136;5.424;2024-02-16T13:21:04;2.92;;;1.27;;
76693;SDS011;69667;52.136;5.424;2024-02-16T13:23:33;2.55;;;1.30;;
76693;SDS011;69667;52.136;5.424;2024-02-16T13:26:01;2.80;;;1.10;;
76693;SDS011;69667;52.136;5.424;2024-02-16T13:28:29;3.20;;;1.13;;
76693;SDS011;69667;52.136;5.424;2024-02-16T13:30:57;2.50;;;1.25;;
76693;SDS011;69667;52.136;5.424;2024-02-16T13:33:26;2.67;;;1.17;;
76693;SDS011;69667;52.136;5.424;2024-02-16T13:35:54;1.73;;;1.02;;
76693;SDS011;69667;52.136;5.424;2024-02-16T13:38:22;5.03;;;1.33;;
76693;SDS011;69667;52.136;5.424;2024-02-16T13:40:50;2.28;;;1.17;;
76693;SDS011;69667;52.136;5.424;2024-02-16T13:43:19;2.28;;;1.23;;
76693;SDS011;69667;52.136;5.424;2024-02-16T13:45:50;1.75;;;0.93;;
76693;SDS011;69667;52.136;5.424;2024-02-16T13:48:20;3.47;;;1.38;;
76693;SDS011;69667;52.136;5.424;2024-02-16T13:50:49;5.07;;;1.33;;
76693;SDS011;69667;52.136;5.424;2024-02-16T13:53:18;2.15;;;1.20;;
76693;SDS011;69667;52.136;5.424;2024-02-16T13:55:49;2.08;;;1.23;;
76693;SDS011;69667;52.136;5.424;2024-02-16T13:58:18;1.88;;;1.10;;
76693;SDS011;69667;52.136;5.424;2024-02-16T14:00:46;2.42;;;1.10;;
76693;SDS011;69667;52.136;5.424;2024-02-16T14:03:16;2.15;;;1.15;;
76693;SDS011;69667;52.136;5.424;2024-02-16T14:05:45;2.80;;;1.25;;
76693;SDS011;69667;52.136;5.424;2024-02-16T14:08:14;2.40;;;1.05;;
76693;SDS011;69667;52.136;5.424;2024-02-16T14:13:10;1.33;;;0.63;;
76693;SDS011;69667;52.136;5.424;2024-02-16T14:15:39;6.20;;;1.75;;
76693;SDS011;69667;52.136;5.424;2024-02-16T14:18:07;2.30;;;1.20;;
76693;SDS011;69667;52.136;5.424;2024-02-16T14:20:47;2.33;;;1.20;;
76693;SDS011;69667;52.136;5.424;2024-02-16T14:23:15;3.85;;;1.13;;
76693;SDS011;69667;52.136;5.424;2024-02-16T14:25:44;2.92;;;1.33;;
76693;SDS011;69667;52.136;5.424;2024-02-16T14:28:13;2.58;;;1.20;;
76693;SDS011;69667;52.136;5.424;2024-02-16T14:30:41;2.63;;;1.25;;
76693;SDS011;69667;52.136;5.424;2024-02-16T14:33:09;4.93;;;1.95;;
76693;SDS011;69667;52.136;5.424;2024-02-16T14:35:39;2.20;;;1.08;;
76693;SDS011;69667;52.136;5.424;2024-02-16T14:38:07;5.32;;;1.80;;
76693;SDS011;69667;52.136;5.424;2024-02-16T14:40:35;2.83;;;1.70;;
76693;SDS011;69667;52.136;5.424;2024-02-16T14:43:04;2.25;;;1.40;;
76693;SDS011;69667;52.136;5.424;2024-02-16T14:45:32;3.65;;;1.67;;
76693;SDS011;69667;52.136;5.424;2024-02-16T14:48:00;4.18;;;1.50;;
76693;SDS011;69667;52.136;5.424;2024-02-16T14:50:29;2.70;;;1.50;;
76693;SDS011;69667;52.136;5.424;2024-02-16T14:53:00;2.92;;;1.35;;
76693;SDS011;69667;52.136;5.424;2024-02-16T14:55:30;6.00;;;1.45;;
76693;SDS011;69667;52.136;5.424;2024-02-16T14:57:58;3.83;;;1.80;;
76693;SDS011;69667;52.136;5.424;2024-02-16T15:00:26;3.33;;;1.30;;
76693;SDS011;69667;52.136;5.424;2024-02-16T15:02:54;3.25;;;1.40;;
76693;SDS011;69667;52.136;5.424;2024-02-16T15:05:23;3.42;;;1.40;;
76693;SDS011;69667;52.136;5.424;2024-02-16T15:07:51;3.80;;;1.55;;
76693;SDS011;69667;52.136;5.424;2024-02-16T15:10:19;3.08;;;1.65;;
76693;SDS011;69667;52.136;5.424;2024-02-16T15:12:47;3.88;;;1.98;;
76693;SDS011;69667;52.136;5.424;2024-02-16T15:15:16;4.20;;;1.70;;
76693;SDS011;69667;52.136;5.424;2024-02-16T15:17:44;3.45;;;1.60;;
76693;SDS011;69667;52.136;5.424;2024-02-16T15:20:14;2.97;;;1.70;;
76693;SDS011;69667;52.136;5.424;2024-02-16T15:22:42;3.33;;;1.83;;